Latest Weather Observations for Lameroo AWS

IDS60801

Issued at 5:32 am CDT Friday 27 March 2015 (issued every 30 minutes, with the page automatically refreshed every 10 minutes)

About weather observations | Map of weather stations | Latest weather observations for SA | Other Formats
Station Details ID: 025562 Name: AUSTIN PLAINS Lat: -35.38 Lon: 140.54 Height: 110.08 m
Data from the previous 72 hours. | See also: Recent months at Lameroo AWS
Date/Time
CDT
Temp
°C
App
Temp
°C
Dew
Point
Rel
Hum
%
Delta-T
°C
Wind Press
QNH
hPa
Press
MSL
hPa
Rain
since 9 am
mm
Dir
 
Spd
km/h
Gust
km/h
Spd
kts
Gust
kts
27/05:30am 7.5 4.5 6.0 90 0.7 SW 11 11 6 6 1026.4 1026.1 0.0
27/05:00am 8.1 5.5 6.2 88 0.9 SW 9 11 5 6 1026.2 1025.9 0.0
27/04:30am 9.5 6.8 7.3 86 1.0 SW 11 13 6 7 1026.1 1025.8 0.0
27/04:00am 9.6 6.6 7.9 89 0.8 WSW 13 17 7 9 1026.3 1026.0 0.0
27/03:30am 8.6 5.7 6.4 86 1.0 W 11 11 6 6 1026.4 1026.1 0.0
27/03:00am 8.4 5.8 5.9 84 1.1 WSW 9 9 5 5 1026.7 1026.4 0.0
27/02:30am 9.3 6.7 6.0 80 1.5 WSW 9 11 5 6 1026.8 1026.5 0.0
27/02:00am 11.1 7.9 7.0 76 2.0 WSW 13 17 7 9 1026.8 1026.5 0.0
27/01:30am 11.4 8.7 7.3 76 2.0 WSW 11 13 6 7 1026.7 1026.4 0.0
27/01:00am 11.8 8.7 7.1 73 2.3 WSW 13 19 7 10 1026.8 1026.5 0.0
27/12:30am 12.5 8.7 7.6 72 2.4 SW 17 26 9 14 1026.8 1026.5 0.0
27/12:00am 12.5 9.1 7.6 72 2.4 SW 15 22 8 12 1026.8 1026.5 0.0
 
Date/Time
CDT
Temp
°C
App
Temp
°C
Dew
Point
Rel
Hum
%
Delta-T
°C
Wind Press
QNH
hPa
Press
MSL
hPa
Rain
since 9 am
mm
Dir
 
Spd
km/h
Gust
km/h
Spd
kts
Gust
kts
26/11:30pm 12.6 8.8 7.5 71 2.5 SW 17 24 9 13 1026.9 1026.6 0.0
26/11:00pm 12.6 8.4 7.3 70 2.6 WSW 19 24 10 13 1026.9 1026.6 0.0
26/10:30pm 12.6 8.4 7.3 70 2.6 SW 19 22 10 12 1026.9 1026.6 0.0
26/10:00pm 12.7 8.8 7.2 69 2.7 SW 17 24 9 13 1026.8 1026.5 0.0
26/09:30pm 12.7 7.0 6.5 66 3.0 SW 26 33 14 18 1026.8 1026.5 0.0
26/09:00pm 13.4 8.4 6.3 62 3.4 WSW 22 30 12 16 1026.5 1026.2 0.0
26/08:30pm 13.3 8.9 6.4 63 3.3 WSW 19 26 10 14 1026.3 1026.0 0.0
26/08:00pm 13.4 8.0 6.3 62 3.4 WSW 24 32 13 17 1026.2 1025.9 0.0
26/07:30pm 13.6 7.4 6.0 60 3.6 WSW 28 35 15 19 1026.0 1025.7 0.0
26/07:00pm 14.3 6.5 5.1 54 4.3 SW 35 48 19 26 1025.6 1025.3 0.0
26/06:30pm 14.7 7.0 5.2 53 4.5 SW 35 50 19 27 1025.1 1024.8 0.0
26/06:00pm 16.0 8.3 3.4 43 5.8 SW 33 48 18 26 1024.7 1024.4 0.0
26/05:30pm 15.1 6.1 4.8 50 4.8 SW 41 50 22 27 1024.5 1024.2 0.0
26/05:00pm 15.5 7.0 5.1 50 4.9 WSW 39 52 21 28 1024.4 1024.1 0.0
26/04:30pm 17.4 9.6 3.0 38 6.6 WSW 33 44 18 24 1024.0 1023.7 0.0
26/04:00pm 14.8 6.9 6.1 56 4.2 SW 37 48 20 26 1024.4 1024.1 0.0
26/03:30pm 17.3 8.6 4.3 42 6.1 WSW 39 50 21 27 1024.2 1023.9 0.0
26/03:00pm 16.3 7.1 5.3 48 5.3 WSW 43 59 23 32 1023.9 1023.6 0.0
26/02:30pm 16.7 7.5 3.4 41 6.1 WSW 41 56 22 30 1023.9 1023.6 0.0
26/02:29pm 16.8 7.6 3.5 41 6.2 WSW 41 56 22 30 1024.0 1023.7 0.0
26/02:25pm 17.2 8.4 3.5 40 6.4 WSW 39 54 21 29 1024.0 1023.7 0.0
26/02:09pm 17.2 8.1 4.2 42 6.1 WSW 41 56 22 30 1024.1 1023.8 0.0
26/02:00pm 16.7 8.0 4.1 43 5.9 SW 39 50 21 27 1024.2 1023.9 0.0
26/01:35pm 18.2 10.1 0.8 31 7.7 WSW 33 52 18 28 1024.0 1023.7 0.0
26/01:30pm 18.1 9.8 2.4 35 7.2 WSW 35 50 19 27 1024.2 1023.9 0.0
26/01:03pm 17.5 10.1 3.8 40 6.4 WSW 32 52 17 28 1024.2 1023.9 0.0
26/01:00pm 17.3 9.3 3.6 40 6.4 WSW 35 52 19 28 1024.3 1024.0 0.0
26/12:30pm 16.4 7.8 2.4 39 6.3 SW 37 48 20 26 1024.4 1024.1 0.0
26/12:01pm 15.8 9.3 4.5 47 5.3 WSW 28 48 15 26 1024.4 1024.1 0.0
26/12:00pm 15.7 9.6 4.7 48 5.2 WSW 26 41 14 22 1024.4 1024.1 0.0
26/11:30am 13.2 6.9 7.4 68 2.8 WSW 30 44 16 24 1024.6 1024.3 0.0
26/11:00am 15.3 8.6 5.8 53 4.6 WSW 30 46 16 25 1024.6 1024.3 0.0
26/10:30am 14.6 8.7 5.9 56 4.2 WSW 26 35 14 19 1024.6 1024.3 0.0
26/10:00am 13.4 7.7 6.5 63 3.3 SW 26 33 14 18 1024.4 1024.1 0.0
26/09:30am 12.2 7.3 7.1 71 2.5 WSW 22 30 12 16 1024.0 1023.7 0.0
26/09:00am 10.8 5.8 7.9 82 1.4 W 24 32 13 17 1023.7 1023.4 0.2
26/08:30am 9.3 6.2 7.4 88 0.9 WNW 13 17 7 9 1023.0 1022.7 0.2
26/08:00am 7.9 4.2 6.4 90 0.7 WNW 15 20 8 11 1022.6 1022.3 0.2
26/07:30am 6.9 3.0 5.5 91 0.6 WNW 15 19 8 10 1022.3 1022.0 0.2
26/07:00am 7.0 3.2 5.9 93 0.5 WNW 15 19 8 10 1021.8 1021.5 0.2
26/06:30am 6.1 2.9 5.1 93 0.4 WNW 11 15 6 8 1021.4 1021.1 0.2
26/06:00am 6.7 2.8 5.3 91 0.6 WNW 15 17 8 9 1021.1 1020.8 0.2
26/05:30am 7.0 3.2 5.8 92 0.5 WNW 15 17 8 9 1020.9 1020.6 0.2
26/05:00am 6.8 3.3 5.3 90 0.7 W 13 15 7 8 1020.8 1020.5 0.2
26/04:30am 7.4 4.0 5.7 89 0.8 W 13 15 7 8 1020.8 1020.5 0.2
26/04:00am 7.6 3.5 6.4 92 0.6 W 17 19 9 10 1020.5 1020.2 0.2
26/03:30am 7.3 3.9 5.8 90 0.7 WNW 13 17 7 9 1020.3 1020.0 0.2
26/03:00am 8.2 3.8 6.5 89 0.8 WNW 19 22 10 12 1020.3 1020.0 0.2
26/02:30am 8.1 4.4 6.2 88 0.9 W 15 19 8 10 1020.3 1020.0 0.2
26/02:00am 8.9 5.3 6.7 86 1.0 WSW 15 19 8 10 1020.1 1019.8 0.2
26/01:30am 9.2 4.9 7.2 87 0.9 WSW 19 22 10 12 1020.1 1019.8 0.2
26/01:00am 9.3 5.5 7.6 89 0.8 W 17 26 9 14 1019.9 1019.6 0.2
26/12:30am 8.9 5.5 7.5 91 0.7 W 15 19 8 10 1019.8 1019.5 0.2
26/12:00am 9.6 5.6 8.2 91 0.7 W 19 20 10 11 1019.6 1019.3 0.2
 
Date/Time
CDT
Temp
°C
App
Temp
°C
Dew
Point
Rel
Hum
%
Delta-T
°C
Wind Press
QNH
hPa
Press
MSL
hPa
Rain
since 9 am
mm
Dir
 
Spd
km/h
Gust
km/h
Spd
kts
Gust
kts
25/11:30pm 9.9 6.4 8.7 92 0.6 WNW 17 20 9 11 1019.6 1019.3 0.2
25/11:00pm 10.6 7.2 9.0 90 0.8 W 17 20 9 11 1019.5 1019.2 0.2
25/10:30pm 11.0 8.1 9.6 91 0.7 W 15 20 8 11 1019.3 1019.0 0.2
25/10:00pm 11.1 7.5 9.9 92 0.6 W 19 22 10 12 1019.2 1018.9 0.2
25/09:30pm 11.0 6.8 9.6 91 0.7 WSW 22 30 12 16 1019.1 1018.8 0.2
25/09:00pm 11.0 4.9 9.8 92 0.6 SW 32 43 17 23 1018.9 1018.6 0.0
25/08:30pm 12.8 6.3 10.3 85 1.3 SW 35 46 19 25 1018.2 1017.9 0.0
25/08:00pm 14.7 7.1 10.5 76 2.2 WSW 41 54 22 29 1017.1 1016.8 0.0
25/07:30pm 18.2 9.6 6.4 46 5.9 W 41 59 22 32 1016.3 1016.0 0.0
25/07:08pm 19.4 11.5 4.4 37 7.2 WNW 35 56 19 30 1015.8 1015.5 0.0
25/07:00pm 19.5 12.0 3.6 35 7.6 WNW 32 43 17 23 1015.7 1015.4 0.0
25/06:30pm 19.7 12.1 3.0 33 7.8 WNW 32 39 17 21 1015.6 1015.3 0.0
25/06:00pm 19.7 12.5 3.0 33 7.8 WNW 30 39 16 21 1015.5 1015.2 0.0
25/05:30pm 20.2 12.5 2.5 31 8.3 WNW 32 43 17 23 1015.7 1015.4 0.0
25/05:00pm 19.8 11.6 2.6 32 8.0 W 35 48 19 26 1015.5 1015.2 0.0
25/04:30pm 20.0 12.7 2.4 31 8.2 WNW 30 41 16 22 1015.7 1015.4 0.0
25/04:00pm 19.9 13.3 2.3 31 8.2 W 26 46 14 25 1015.8 1015.5 0.0
25/03:30pm 20.3 14.6 3.1 32 8.1 WNW 22 35 12 19 1016.1 1015.8 0.0
25/03:00pm 19.3 13.1 2.2 32 7.9 WNW 24 33 13 18 1016.5 1016.2 0.0
25/02:45pm 19.3 12.0 2.6 33 7.8 WNW 30 46 16 25 1016.7 1016.4 0.0
25/02:30pm 19.1 13.9 2.5 33 7.7 W 19 26 10 14 1017.1 1016.8 0.0
25/02:00pm 19.2 12.3 2.6 33 7.7 NW 28 43 15 23 1017.4 1017.1 0.0
25/01:30pm 18.4 12.7 2.7 35 7.3 WNW 22 33 12 18 1018.0 1017.7 0.0
25/01:00pm 18.8 14.0 2.6 34 7.5 WNW 17 37 9 20 1018.1 1017.8 0.0
25/12:30pm 18.0 12.8 2.7 36 7.0 WNW 19 33 10 18 1018.6 1018.3 0.0
25/12:00pm 17.3 12.0 2.9 38 6.6 WNW 20 32 11 17 1019.1 1018.8 0.0
25/11:30am 16.8 12.4 2.8 39 6.4 NW 15 24 8 13 1019.3 1019.0 0.0
25/11:00am 16.1 11.7 2.5 40 6.2 NNW 15 26 8 14 1019.6 1019.3 0.0
25/10:30am 15.9 11.5 2.7 41 6.0 NNW 15 22 8 12 1020.1 1019.8 0.0
25/10:00am 14.6 11.7 2.8 45 5.3 NNE 7 13 4 7 1020.2 1019.9 0.0
25/09:30am 13.6 10.8 3.1 49 4.7 NE 7 9 4 5 1020.2 1019.9 0.0
25/09:00am 12.2 9.4 3.2 54 4.0 NNE 7 9 4 5 1020.2 1019.9 0.0
25/08:30am 10.9 8.2 3.7 61 3.2 ENE 7 7 4 4 1020.0 1019.7 0.0
25/08:00am 8.2 6.0 3.1 70 2.2 SW 4 6 2 3 1020.3 1020.0 0.0
25/07:30am 8.1 6.2 3.0 70 2.2 SW 2 4 1 2 1020.0 1019.7 0.0
25/07:00am 6.9 4.2 2.4 73 1.9 SW 6 7 3 4 1020.1 1019.8 0.0
25/06:30am 6.7 3.8 2.4 74 1.8 SSW 7 9 4 5 1019.6 1019.3 0.0
25/06:00am 7.3 4.3 2.0 69 2.2 SSW 7 9 4 5 1019.8 1019.5 0.0
25/05:30am 7.6 6.0 2.5 70 2.1 CALM 0 4 0 2 1019.4 1019.1 0.0
25/05:00am 8.4 6.9 3.1 69 2.3 CALM 0 0 0 0 1019.8 1019.5 0.0
25/04:30am 8.6 6.3 3.0 68 2.4 SW 4 7 2 4 1020.0 1019.7 0.0
25/04:00am 8.9 5.7 3.3 68 2.4 SW 9 9 5 5 1020.2 1019.9 0.0
25/03:30am 9.1 6.5 3.3 67 2.5 SSW 6 7 3 4 1020.2 1019.9 0.0
25/03:00am 9.1 6.5 3.1 66 2.6 SSW 6 6 3 3 1020.3 1020.0 0.0
25/02:30am 9.2 6.4 3.4 67 2.5 SSW 7 9 4 5 1020.9 1020.6 0.0
25/02:00am 7.8 4.2 3.1 72 2.0 SW 11 13 6 7 1021.2 1020.9 0.0
25/01:30am 8.0 4.3 2.5 68 2.3 SW 11 13 6 7 1020.7 1020.4 0.0
25/01:00am 8.0 3.9 2.3 67 2.4 SSW 13 17 7 9 1020.9 1020.6 0.0
25/12:30am 8.5 4.9 2.7 67 2.5 SW 11 13 6 7 1021.2 1020.9 0.0
25/12:00am 9.3 5.3 3.1 65 2.7 SSW 13 15 7 8 1021.5 1021.2 0.0
 
Date/Time
CDT
Temp
°C
App
Temp
°C
Dew
Point
Rel
Hum
%
Delta-T
°C
Wind Press
QNH
hPa
Press
MSL
hPa
Rain
since 9 am
mm
Dir
 
Spd
km/h
Gust
km/h
Spd
kts
Gust
kts
24/11:30pm 9.3 6.0 2.6 63 2.8 S 9 9 5 5 1021.5 1021.2 0.0
24/11:00pm 9.6 6.3 2.5 61 3.0 SSW 9 11 5 6 1021.8 1021.5 0.0
24/10:30pm 10.9 7.3 2.7 57 3.5 S 11 13 6 7 1021.8 1021.5 0.0
24/10:00pm 11.5 7.5 2.8 55 3.8 S 13 15 7 8 1021.6 1021.3 0.0
24/09:30pm 12.0 8.4 2.7 53 4.1 S 11 15 6 8 1021.7 1021.4 0.0
24/09:00pm 13.8 9.8 3.0 48 4.8 S 13 17 7 9 1021.5 1021.2 0.0
24/08:30pm 14.2 10.2 3.1 47 5.0 S 13 17 7 9 1021.4 1021.1 0.0
24/08:00pm 14.1 10.1 3.0 47 5.0 S 13 15 7 8 1021.2 1020.9 0.0
24/07:30pm 14.9 10.1 2.8 44 5.4 SSE 17 20 9 11 1020.8 1020.5 0.0
24/07:00pm 15.9 10.2 3.0 42 5.9 S 22 28 12 15 1020.8 1020.5 0.0
24/06:30pm 16.3 10.6 2.7 40 6.2 SSW 22 32 12 17 1020.4 1020.1 0.0
24/06:00pm 17.4 12.3 3.0 38 6.6 SSW 19 28 10 15 1020.0 1019.7 0.0
24/05:30pm 18.1 12.0 2.8 36 7.1 SSW 24 35 13 19 1019.6 1019.3 0.0
24/05:00pm 17.7 11.6 2.5 36 7.0 SSW 24 35 13 19 1019.3 1019.0 0.0
24/04:30pm 18.9 12.3 2.3 33 7.6 SSW 26 37 14 20 1019.4 1019.1 0.0
24/04:00pm 18.6 12.0 2.0 33 7.6 SSW 26 33 14 18 1019.6 1019.3 0.0
24/03:30pm 19.1 13.2 2.0 32 7.8 S 22 35 12 19 1019.9 1019.6 0.0
24/03:00pm 18.6 12.9 2.9 35 7.3 S 22 33 12 18 1020.3 1020.0 0.0
24/02:30pm 17.1 11.0 2.7 38 6.6 S 24 35 13 19 1020.5 1020.2 0.0
24/02:00pm 17.1 10.7 3.1 39 6.5 S 26 37 14 20 1020.6 1020.3 0.0
24/01:30pm 17.0 10.2 3.0 39 6.4 S 28 39 15 21 1020.8 1020.5 0.0
24/01:00pm 17.0 11.1 4.0 42 6.1 S 24 32 13 17 1021.0 1020.7 0.0
24/12:30pm 16.4 10.5 3.8 43 5.8 S 24 32 13 17 1021.3 1021.0 0.0
24/12:00pm 16.5 11.7 4.5 45 5.7 S 19 28 10 15 1021.3 1021.0 0.0
24/11:30am 15.2 11.1 6.2 55 4.4 S 17 24 9 13 1021.6 1021.3 0.0
24/11:00am 15.4 10.7 5.9 53 4.6 S 20 28 11 15 1021.6 1021.3 0.0
24/10:30am 14.9 10.4 6.0 55 4.3 S 19 26 10 14 1021.7 1021.4 0.0
24/10:00am 13.9 10.1 7.4 65 3.2 S 17 22 9 12 1021.6 1021.3 0.0
24/09:30am 13.6 9.3 7.8 68 2.9 S 20 26 11 14 1021.5 1021.2 0.0
24/09:00am 12.7 8.6 8.0 73 2.3 S 19 22 10 12 1021.2 1020.9 0.0
24/08:30am 12.0 8.8 8.3 78 1.8 SSW 15 20 8 11 1021.0 1020.7 0.0
24/08:00am 11.5 8.3 8.4 81 1.5 S 15 19 8 10 1020.6 1020.3 0.0
24/07:30am 11.2 8.3 8.2 82 1.5 SSE 13 17 7 9 1019.9 1019.6 0.0
24/07:00am 11.2 8.7 8.4 83 1.4 S 11 15 6 8 1019.7 1019.4 0.0
24/06:30am 11.2 8.4 8.4 83 1.4 SSW 13 17 7 9 1019.4 1019.1 0.0
24/06:00am 11.3 8.4 8.3 82 1.5 SSW 13 17 7 9 1018.9 1018.6 0.0

Other Formats:

Comma delimited format used in spreadsheet applications
http://www.bom.gov.au/fwo/IDS60801/IDS60801.94690.axf

JavaScript Object Notation format (JSON) in row-major order
http://www.bom.gov.au/fwo/IDS60801/IDS60801.94690.json